Ransomville, New York
Current Conditions -  °F | °C
As of 12:53 PM on Friday 31 Oct 2014 (Local Time) from KIAG Reporting Station
Light Rain Light Rain  
Wind Chill: 41°   Ceiling: 3400
Heat Index: 46°   Visibility: 7mi
Dew Point: 39°   Wind: 10mph
Humidity: 76%   Direction: 190°S
Pressure: 29.91"   Gusts: NA
Location:  43.24°N, 78.91°W
Report Text: KIAG 311653Z 19009KT 7SM -RA SCT027 BKN034 OVC055 08/04 A2991 RMK AO2 SLP138 P0000 T00780039 $
Loading
Personal Weather Stations






























Interactive Weather Map
Tropical Storm Tracking
New forecast layout! Learn more

10-Day Weather Forecast

Advertisements
Track Severe Weather on mobile